Time;durP1;ratioP1;P1;durP2;ratioP2;P2;SDS_P1;SDS_P2;PMS_P1;PMS_P2;Temp;Humidity;BMP_temperature;BMP_pressure;BME280_temperature;BME280_humidity;BME280_pressure;Samples;Min_cycle;Max_cycle;Signal;HPM_P1;HPM_P2
2023/10/18 04:56:46;;;;;;;244.17;223.10;;;;;;;;;;6121382;23;20022;-96
2023/10/18 05:10:49;;;;;;;223.95;204.57;;;;;;;;;;6224492;23;20077;-96
2023/10/18 05:13:44;;;;;;;243.75;223.55;;;;;;;;;;6209603;23;20032;-95
2023/10/18 05:16:57;;;;;;;;;;;;;;;;;;;;;
2023/10/18 05:57:54;;;;;;;;;;;;;;;;;;;;;
2023/10/18 07:15:45;;;;;;;78.65;72.47;;;;;;;;;;6279037;22;20019;-95
2023/10/18 07:18:33;;;;;;;90.85;83.88;;;;;;;;;;6251304;22;20011;-94
2023/10/18 07:21:28;;;;;;;97.70;90.20;;;;;;;;;;6250297;22;20018;-96
2023/10/18 07:40:07;;;;;;;320.70;292.23;;;;;;;;;;6126210;23;20017;-94
2023/10/18 07:42:51;;;;;;;205.27;187.15;;;;;;;;;;6101457;23;20491;-93
2023/10/18 07:45:28;;;;;;;136.05;125.18;;;;;;;;;;6215357;22;20015;-93
2023/10/18 07:48:08;;;;;;;187.00;170.48;;;;;;;;;;6251422;22;20031;-94
2023/10/18 07:50:43;;;;;;;281.20;257.40;;;;;;;;;;6252003;22;20012;-95
2023/10/18 07:53:12;;;;;;;185.30;169.68;;;;;;;;;;6251918;22;20448;-95
2023/10/18 07:55:56;;;;;;;160.90;147.65;;;;;;;;;;6251477;22;20004;-93
2023/10/18 08:04:22;;;;;;;167.55;153.80;;;;;;;;;;6125988;23;20009;-94
2023/10/18 08:13:31;;;;;;;131.75;121.03;;;;;;;;;;6125826;23;20025;-95
2023/10/18 08:16:01;;;;;;;149.60;136.98;;;;;;;;;;6125790;23;20040;-95
2023/10/18 08:21:36;;;;;;;154.80;142.15;;;;;;;;;;6229118;23;20004;-93
2023/10/18 08:24:08;;;;;;;130.10;119.88;;;;;;;;;;6221191;23;20000;-93
2023/10/18 08:27:21;;;;;;;158.05;145.23;;;;;;;;;;6221051;23;20008;-94
2023/10/18 08:32:30;;;;;;;;;;;;;;;;;;6247782;23;20023;-94
2023/10/18 08:37:46;;;;;;;353.35;315.00;;;;;;;;;;6223714;22;20032;-94
2023/10/18 08:43:12;;;;;;;358.23;324.13;;;;;;;;;;6249011;23;20019;-95
2023/10/18 08:45:47;;;;;;;303.90;277.00;;;;;;;;;;6220493;23;20004;-95
2023/10/18 08:51:07;;;;;;;412.27;371.02;;;;;;;;;;6184847;23;20071;-96
2023/10/18 08:53:43;;;;;;;624.08;469.08;;;;;;;;;;6159735;23;20009;-94
2023/10/18 08:59:24;;;;;;;451.08;404.02;;;;;;;;;;6177198;23;20060;-94
2023/10/18 09:02:39;;;;;;;399.08;363.17;;;;;;;;;;6154728;23;20382;-93
2023/10/18 09:05:11;;;;;;;504.70;452.42;;;;;;;;;;6183306;23;20002;-94
2023/10/18 09:08:07;;;;;;;456.35;412.75;;;;;;;;;;6159561;23;20048;-93
2023/10/18 09:10:55;;;;;;;437.52;396.98;;;;;;;;;;6146039;23;20028;-92
2023/10/18 09:16:01;;;;;;;413.95;375.20;;;;;;;;;;6193220;23;20128;-95
2023/10/18 09:18:37;;;;;;;364.05;330.95;;;;;;;;;;6172056;23;20012;-95
2023/10/18 09:23:41;;;;;;;427.30;387.92;;;;;;;;;;6257118;23;20039;-94
2023/10/18 09:26:10;;;;;;;390.80;355.13;;;;;;;;;;6220183;23;20004;-95
2023/10/18 09:28:49;;;;;;;446.17;403.73;;;;;;;;;;6245681;23;20035;-95
2023/10/18 09:31:22;;;;;;;648.15;550.47;;;;;;;;;;6245516;23;20475;-94
2023/10/18 09:33:58;;;;;;;422.13;382.27;;;;;;;;;;6245756;23;20050;-94
2023/10/18 09:36:29;;;;;;;379.02;344.45;;;;;;;;;;6245481;23;20014;-94
2023/10/18 09:38:59;;;;;;;331.38;302.08;;;;;;;;;;6246074;23;20012;-95
2023/10/18 09:42:08;;;;;;;;;;;;;;;;;;;;;
2023/10/18 09:59:53;;;;;;;462.02;418.55;;;;;;;;;;6241437;23;20054;-95
2023/10/18 10:02:37;;;;;;;;;;;;;;;;;;;;;
2023/10/18 10:08:07;;;;;;;390.98;356.55;;;;;;;;;;6071115;23;20641;-94
2023/10/18 10:13:32;;;;;;;499.20;451.48;;;;;;;;;;6112824;23;20484;-93
2023/10/18 10:16:04;;;;;;;495.40;448.08;;;;;;;;;;6221883;23;20004;-94
2023/10/18 10:18:35;;;;;;;387.70;353.98;;;;;;;;;;6222102;23;20011;-94
2023/10/18 10:21:08;;;;;;;454.95;411.20;;;;;;;;;;6221712;23;20000;-94
2023/10/18 10:23:35;;;;;;;437.33;395.92;;;;;;;;;;6221369;23;20009;-94
2023/10/18 10:26:11;;;;;;;399.10;362.08;;;;;;;;;;6221324;23;20430;-95
2023/10/18 10:31:53;;;;;;;534.10;479.13;;;;;;;;;;6248567;23;20023;-93
2023/10/18 10:34:26;;;;;;;483.67;437.38;;;;;;;;;;6221570;23;20004;-93
2023/10/18 10:37:25;;;;;;;592.25;531.90;;;;;;;;;;6218836;23;20005;-94
2023/10/18 10:42:43;;;;;;;1523.25;833.80;;;;;;;;;;6249515;23;20074;-92
2023/10/18 10:45:38;;;;;;;459.55;415.52;;;;;;;;;;6223107;23;20020;-94
2023/10/18 10:51:49;;;;;;;544.65;489.90;;;;;;;;;;6249219;23;20055;-94
2023/10/18 10:54:28;;;;;;;789.78;623.63;;;;;;;;;;6261959;23;20004;-94
2023/10/18 10:57:30;;;;;;;489.77;442.35;;;;;;;;;;6222963;23;20047;-94
2023/10/18 11:06:32;;;;;;;465.75;420.40;;;;;;;;;;6065645;23;20006;-94
2023/10/18 11:09:15;;;;;;;756.38;629.80;;;;;;;;;;6071969;23;20010;-94
2023/10/18 11:15:16;;;;;;;;;;;;;;;;;;;;;
2023/10/18 11:17:52;;;;;;;451.92;410.55;;;;;;;;;;6068572;23;20094;-93
2023/10/18 11:20:46;;;;;;;;;;;;;;;;;;;;;
2023/10/18 11:23:49;;;;;;;429.85;388.52;;;;;;;;;;6187733;23;20090;-93
2023/10/18 11:26:19;;;;;;;578.88;520.58;;;;;;;;;;6241867;23;20008;-94
2023/10/18 11:28:50;;;;;;;765.47;682.45;;;;;;;;;;6221163;23;20004;-94
2023/10/18 11:31:29;;;;;;;733.72;642.00;;;;;;;;;;6220888;23;20503;-94
2023/10/18 11:34:14;;;;;;;396.52;359.88;;;;;;;;;;6220778;23;20076;-94
2023/10/18 11:40:05;;;;;;;590.28;529.05;;;;;;;;;;6096395;23;20100;-94
2023/10/18 11:43:25;;;;;;;448.77;405.50;;;;;;;;;;6199876;23;20058;-94
2023/10/18 11:45:44;;;;;;;412.73;373.10;;;;;;;;;;6242358;23;20005;-94
2023/10/18 11:48:21;;;;;;;;;;;;;;;;;;;;;
2023/10/18 11:51:01;;;;;;;511.10;461.15;;;;;;;;;;6247697;23;20156;-94
2023/10/18 11:56:47;;;;;;;409.08;370.48;;;;;;;;;;6245443;23;20034;-93
2023/10/18 11:59:15;;;;;;;470.40;425.17;;;;;;;;;;6191236;23;20009;-94
2023/10/18 12:01:45;;;;;;;495.23;446.05;;;;;;;;;;6190953;23;20063;-94
2023/10/18 12:04:37;;;;;;;891.28;461.88;;;;;;;;;;6190662;23;20005;-94
2023/10/18 12:07:14;;;;;;;504.52;452.92;;;;;;;;;;6190331;23;20051;-95
2023/10/18 12:25:24;;;;;;;425.23;383.88;;;;;;;;;;6217460;23;20110;-94
2023/10/18 12:28:19;;;;;;;484.38;436.17;;;;;;;;;;6190210;23;20016;-95
2023/10/18 12:40:04;;;;;;;504.58;454.10;;;;;;;;;;6076028;23;20067;-94
2023/10/18 12:57:33;;;;;;;391.20;354.90;;;;;;;;;;6222393;23;20004;-93
2023/10/18 13:00:34;;;;;;;;;;;;;;;;;;;;;
2023/10/18 13:06:30;;;;;;;466.45;419.50;;;;;;;;;;6125446;23;20526;-94
2023/10/18 13:13:09;;;;;;;539.92;459.73;;;;;;;;;;6174729;23;20009;-96
2023/10/18 13:16:00;;;;;;;;;;;;;;;;;;;;;
2023/10/18 13:18:26;;;;;;;650.95;527.53;;;;;;;;;;6191721;23;20036;-94
2023/10/18 13:26:48;;;;;;;691.90;495.17;;;;;;;;;;6252142;23;20031;-92
2023/10/18 13:29:32;;;;;;;941.58;586.70;;;;;;;;;;6225089;22;20383;-94
2023/10/18 13:32:40;;;;;;;491.23;443.25;;;;;;;;;;6217799;23;20100;-95
2023/10/18 13:35:49;;;;;;;438.95;398.40;;;;;;;;;;6216872;23;20009;-93
2023/10/18 13:38:22;;;;;;;561.88;500.77;;;;;;;;;;6214299;23;20092;-93
2023/10/18 13:41:09;;;;;;;858.00;696.35;;;;;;;;;;6215274;23;20001;-92
2023/10/18 13:49:30;;;;;;;380.77;346.98;;;;;;;;;;6125303;23;20016;-92
2023/10/18 13:52:22;;;;;;;450.15;408.23;;;;;;;;;;6102147;23;20018;-93
2023/10/18 13:55:03;;;;;;;489.40;441.58;;;;;;;;;;6107169;23;20021;-93
2023/10/18 14:04:08;;;;;;;467.58;419.98;;;;;;;;;;6125351;23;20034;-95
2023/10/18 14:22:17;;;;;;;438.85;397.33;;;;;;;;;;6084400;23;20005;-94
2023/10/18 14:28:06;;;;;;;434.42;392.75;;;;;;;;;;6156151;23;20032;-94
2023/10/18 14:31:26;;;;;;;441.00;398.48;;;;;;;;;;6131722;23;20108;-94
2023/10/18 14:33:57;;;;;;;376.30;342.17;;;;;;;;;;6099146;23;20010;-95
2023/10/18 14:36:25;;;;;;;364.30;330.75;;;;;;;;;;6074801;23;20022;-95
2023/10/18 14:48:07;;;;;;;455.85;414.80;;;;;;;;;;6041008;23;20102;-93
2023/10/18 14:56:34;;;;;;;474.83;428.48;;;;;;;;;;6247312;22;20035;-92
2023/10/18 14:59:00;;;;;;;439.48;400.80;;;;;;;;;;6222638;23;20015;-94
2023/10/18 15:01:39;;;;;;;;;;;;;;;;;;;;;
2023/10/18 15:07:09;;;;;;;416.30;377.10;;;;;;;;;;6248058;23;20012;-95
2023/10/18 15:09:41;;;;;;;431.67;390.38;;;;;;;;;;6221936;23;20415;-94
2023/10/18 15:12:22;;;;;;;489.15;444.58;;;;;;;;;;6221683;23;20044;-96
2023/10/18 15:15:28;;;;;;;;;;;;;;;;;;;;;
2023/10/18 15:18:00;;;;;;;453.50;411.33;;;;;;;;;;6248890;23;20083;-96
2023/10/18 15:20:32;;;;;;;472.63;429.77;;;;;;;;;;6243313;22;20004;-92
2023/10/18 15:22:58;;;;;;;435.35;394.63;;;;;;;;;;6246432;23;20015;-94
2023/10/18 15:25:28;;;;;;;435.13;395.67;;;;;;;;;;6241066;23;20087;-93
2023/10/18 15:28:03;;;;;;;491.30;446.20;;;;;;;;;;6228936;23;20035;-93
2023/10/18 15:30:33;;;;;;;403.58;366.95;;;;;;;;;;6224403;23;20019;-95
2023/10/18 15:33:04;;;;;;;399.60;363.92;;;;;;;;;;6223211;23;20464;-96
2023/10/18 15:38:34;;;;;;;458.05;417.08;;;;;;;;;;6218864;23;20011;-93
2023/10/18 15:41:06;;;;;;;403.42;366.48;;;;;;;;;;6197654;23;20005;-96
2023/10/18 15:43:49;;;;;;;437.83;397.52;;;;;;;;;;6186091;23;20012;-95
2023/10/18 15:49:08;;;;;;;459.35;416.85;;;;;;;;;;6175350;23;20012;-96
2023/10/18 15:52:00;;;;;;;458.57;415.20;;;;;;;;;;6162826;23;20100;-94
2023/10/18 15:54:50;;;;;;;447.25;406.52;;;;;;;;;;6101986;23;20005;-95
2023/10/18 15:57:16;;;;;;;490.20;445.60;;;;;;;;;;6101777;23;20005;-95
2023/10/18 15:59:51;;;;;;;456.83;415.38;;;;;;;;;;6103256;23;20408;-95
2023/10/18 16:02:21;;;;;;;456.77;415.95;;;;;;;;;;6106701;23;20013;-96
2023/10/18 16:04:59;;;;;;;469.60;429.05;;;;;;;;;;6101665;23;20006;-94
2023/10/18 16:07:31;;;;;;;477.48;434.42;;;;;;;;;;6126858;23;20085;-96
2023/10/18 16:09:57;;;;;;;397.55;364.17;;;;;;;;;;6155870;23;20084;-95
2023/10/18 16:12:23;;;;;;;434.38;397.70;;;;;;;;;;6155745;23;20465;-95
2023/10/18 16:15:01;;;;;;;421.15;385.42;;;;;;;;;;6174357;23;20055;-96
2023/10/18 16:17:27;;;;;;;423.60;387.13;;;;;;;;;;6162034;23;20005;-96
2023/10/18 16:20:25;;;;;;;442.42;404.85;;;;;;;;;;6161152;23;20012;-96
2023/10/18 16:23:07;;;;;;;;;;;;;;;;;;;;;
2023/10/18 16:25:40;;;;;;;404.48;369.95;;;;;;;;;;6228342;23;20091;-96
2023/10/18 16:28:10;;;;;;;407.05;371.85;;;;;;;;;;6221715;23;20026;-96
2023/10/18 16:30:43;;;;;;;388.98;356.73;;;;;;;;;;6221952;23;20345;-96
2023/10/18 16:33:12;;;;;;;381.05;348.90;;;;;;;;;;6221742;23;20009;-95
2023/10/18 16:35:57;;;;;;;435.23;398.05;;;;;;;;;;6223482;23;20414;-96
2023/10/18 16:38:45;;;;;;;404.45;370.10;;;;;;;;;;6229760;23;20011;-96
2023/10/18 16:41:36;;;;;;;427.98;391.02;;;;;;;;;;6250790;23;20004;-96
2023/10/18 16:44:10;;;;;;;416.20;378.80;;;;;;;;;;6240747;23;20014;-95
2023/10/18 16:46:45;;;;;;;433.85;396.27;;;;;;;;;;6239143;23;20008;-96
2023/10/18 16:49:20;;;;;;;443.60;403.77;;;;;;;;;;6227422;23;20008;-95
2023/10/18 16:51:53;;;;;;;386.80;353.17;;;;;;;;;;6222006;23;20087;-96
2023/10/18 16:54:22;;;;;;;447.10;406.67;;;;;;;;;;6221046;23;20082;-95
2023/10/18 16:56:54;;;;;;;423.02;384.40;;;;;;;;;;6222466;23;20030;-95
2023/10/18 16:59:20;;;;;;;413.08;375.08;;;;;;;;;;6222807;23;20004;-96
2023/10/18 17:01:51;;;;;;;462.27;418.98;;;;;;;;;;6221294;23;20004;-95
2023/10/18 17:04:26;;;;;;;459.17;416.77;;;;;;;;;;6221834;23;20008;-95
2023/10/18 17:06:58;;;;;;;452.85;411.85;;;;;;;;;;6223837;23;20091;-96
2023/10/18 17:09:26;;;;;;;434.50;393.60;;;;;;;;;;6224920;23;20005;-95
2023/10/18 17:11:58;;;;;;;459.08;417.58;;;;;;;;;;6223618;23;20342;-95
2023/10/18 17:14:46;;;;;;;473.20;431.45;;;;;;;;;;6225723;23;20497;-96
2023/10/18 17:23:11;;;;;;;562.75;504.60;;;;;;;;;;6259504;22;20048;-95
2023/10/18 17:25:59;;;;;;;516.20;469.83;;;;;;;;;;6238948;23;20015;-96
2023/10/18 17:29:09;;;;;;;477.10;434.85;;;;;;;;;;6191797;23;20001;-95
2023/10/18 17:31:43;;;;;;;615.83;547.70;;;;;;;;;;6189350;23;20347;-96
2023/10/18 17:37:24;;;;;;;667.85;594.00;;;;;;;;;;6199786;23;20015;-95
2023/10/18 17:55:32;;;;;;;802.45;658.35;;;;;;;;;;6248202;23;20387;-95
2023/10/18 17:58:30;;;;;;;900.75;694.00;;;;;;;;;;6222275;23;20386;-94
2023/10/18 18:00:59;;;;;;;650.53;587.17;;;;;;;;;;6211029;23;20075;-96
2023/10/18 18:21:21;;;;;;;983.90;718.53;;;;;;;;;;6093411;23;20011;-94
